Time;durP1;ratioP1;P1;durP2;ratioP2;P2;SDS_P1;SDS_P2;PMS_P1;PMS_P2;Temp;Humidity;BMP_temperature;BMP_pressure;BME280_temperature;BME280_humidity;BME280_pressure;Samples;Min_cycle;Max_cycle;Signal;HPM_P1;HPM_P2
2023/07/21 00:00:14;;;;;;;3.55;1.62;;;;;;;23.35;41.09;98812.00;4364660;32;33927;-86
2023/07/21 00:02:42;;;;;;;5.05;1.65;;;;;;;23.39;40.84;98805.63;4390969;32;35091;-86
2023/07/21 00:05:11;;;;;;;5.80;1.80;;;;;;;23.35;41.00;98800.56;4390781;32;34827;-86
2023/07/21 00:07:39;;;;;;;4.57;1.92;;;;;;;23.34;41.11;98804.13;4390193;32;33577;-85
2023/07/21 00:10:08;;;;;;;4.70;1.50;;;;;;;23.31;41.47;98799.81;4390724;32;33828;-86
2023/07/21 00:12:48;;;;;;;4.05;1.90;;;;;;;23.32;41.36;98806.81;4376829;32;33755;-87
2023/07/21 00:15:18;;;;;;;4.20;1.80;;;;;;;23.20;41.68;98808.25;4377173;32;34327;-86
2023/07/21 00:17:48;;;;;;;5.87;2.10;;;;;;;23.24;41.69;98801.88;4377266;32;33573;-85
2023/07/21 00:20:21;;;;;;;4.00;1.67;;;;;;;23.20;41.70;98807.38;4376960;32;34677;-86
2023/07/21 00:22:50;;;;;;;5.65;2.15;;;;;;;23.30;41.64;98806.91;4377300;32;34754;-85
2023/07/21 00:25:18;;;;;;;4.03;1.55;;;;;;;23.22;41.91;98806.41;4376941;32;34471;-87
2023/07/21 00:27:46;;;;;;;3.80;1.50;;;;;;;23.20;41.91;98813.53;4390636;32;33467;-86
2023/07/21 00:30:14;;;;;;;7.25;2.17;;;;;;;23.21;41.80;98811.72;4364364;32;34013;-86
2023/07/21 00:32:42;;;;;;;4.28;1.62;;;;;;;23.22;41.80;98809.03;4389339;32;34977;-86
2023/07/21 00:35:10;;;;;;;4.25;1.70;;;;;;;23.18;41.54;98807.44;4390223;32;35032;-87
2023/07/21 00:37:38;;;;;;;5.62;2.60;;;;;;;23.13;42.13;98809.44;4390115;32;33616;-86
2023/07/21 00:40:10;;;;;;;3.22;1.37;;;;;;;23.22;41.89;98811.69;4390148;32;33508;-86
2023/07/21 00:42:38;;;;;;;4.28;1.85;;;;;;;23.26;41.80;98804.44;4390426;32;34681;-86
2023/07/21 00:45:06;;;;;;;3.78;1.45;;;;;;;23.26;42.04;98810.63;4392217;32;34984;-87
2023/07/21 00:47:35;;;;;;;3.65;1.50;;;;;;;23.34;42.04;98806.78;4390055;32;33400;-87
2023/07/21 00:50:03;;;;;;;4.10;1.80;;;;;;;23.34;41.91;98801.50;4391344;32;34232;-87
2023/07/21 00:52:31;;;;;;;3.75;1.52;;;;;;;23.32;41.50;98798.91;4378338;32;34224;-87
2023/07/21 00:54:58;;;;;;;4.80;1.90;;;;;;;23.35;41.49;98797.91;4378460;32;34101;-86
2023/07/21 00:57:26;;;;;;;3.55;1.60;;;;;;;23.41;41.34;98797.59;4392045;32;34147;-86
2023/07/21 00:59:54;;;;;;;6.70;1.73;;;;;;;23.43;41.49;98795.75;4377479;32;34340;-86
2023/07/21 01:02:23;;;;;;;4.12;1.48;;;;;;;23.49;41.38;98792.84;4389257;32;85573;-87
2023/07/21 01:04:54;;;;;;;4.22;1.50;;;;;;;23.56;41.23;98788.97;4392048;32;34890;-87
2023/07/21 01:07:22;;;;;;;3.90;1.40;;;;;;;23.52;41.11;98788.28;4391636;32;33578;-86
2023/07/21 01:09:50;;;;;;;3.80;1.75;;;;;;;23.58;41.11;98787.13;4391154;32;33705;-85
2023/07/21 01:12:17;;;;;;;3.28;1.42;;;;;;;23.64;40.88;98786.84;4391236;32;35067;-86
2023/07/21 01:14:45;;;;;;;5.28;1.92;;;;;;;23.55;41.31;98780.19;4378081;32;33773;-86
2023/07/21 01:17:15;;;;;;;4.00;1.75;;;;;;;23.62;40.83;98777.25;4391613;32;33346;-86
2023/07/21 01:19:48;;;;;;;4.20;1.60;;;;;;;23.64;41.05;98778.91;4366270;32;33682;-87
2023/07/21 01:22:22;;;;;;;4.93;1.80;;;;;;;23.68;40.86;98775.22;4390682;32;33796;-87
2023/07/21 01:24:50;;;;;;;3.87;1.83;;;;;;;23.66;41.20;98770.88;4392367;32;34235;-87
2023/07/21 01:27:22;;;;;;;4.50;1.55;;;;;;;23.73;41.09;98775.84;4391703;32;33815;-87
2023/07/21 01:29:51;;;;;;;4.50;1.75;;;;;;;23.70;40.99;98778.62;4378613;32;33655;-86
2023/07/21 01:32:22;;;;;;;3.78;1.70;;;;;;;23.68;40.99;98782.31;4378255;32;35108;-87
2023/07/21 01:34:49;;;;;;;2.97;1.48;;;;;;;23.64;40.94;98778.91;4389749;32;34130;-86
2023/07/21 01:37:18;;;;;;;3.75;1.58;;;;;;;23.70;40.91;98773.34;4391562;32;33997;-86
2023/07/21 01:39:48;;;;;;;2.85;1.42;;;;;;;23.73;41.21;98778.50;4378320;32;32490;-87
2023/07/21 01:42:15;;;;;;;3.78;1.58;;;;;;;23.71;41.17;98780.34;4365356;32;34729;-87
2023/07/21 01:44:43;;;;;;;3.70;1.37;;;;;;;23.72;41.21;98784.72;4391731;32;34828;-87
2023/07/21 01:47:11;;;;;;;5.95;1.70;;;;;;;23.74;40.83;98779.34;4391309;32;34664;-86
2023/07/21 01:49:38;;;;;;;4.05;1.70;;;;;;;23.76;40.78;98778.38;4391880;32;33738;-86
2023/07/21 01:52:06;;;;;;;6.18;1.65;;;;;;;23.76;40.35;98773.06;4391290;32;34469;-86
2023/07/21 01:54:40;;;;;;;4.12;1.75;;;;;;;23.79;40.42;98772.94;4376970;32;34044;-87
2023/07/21 01:57:09;;;;;;;6.78;1.65;;;;;;;23.76;40.59;98773.06;4377596;32;33516;-85
2023/07/21 01:59:39;;;;;;;3.90;1.77;;;;;;;23.78;40.38;98771.19;4389123;32;33790;-86
2023/07/21 02:02:06;;;;;;;4.32;1.80;;;;;;;23.82;40.13;98771.06;4391511;32;35361;-86
2023/07/21 02:04:35;;;;;;;3.30;1.60;;;;;;;23.82;40.94;98768.41;4390287;32;34743;-86
2023/07/21 02:07:02;;;;;;;6.45;1.90;;;;;;;23.83;41.10;98778.06;4376633;32;34633;-85
2023/07/21 02:09:30;;;;;;;4.62;2.00;;;;;;;23.79;41.56;98766.78;4376389;32;34849;-86
2023/07/21 02:11:58;;;;;;;4.93;1.50;;;;;;;23.84;42.28;98774.50;4375082;32;35567;-85
2023/07/21 02:14:27;;;;;;;4.57;1.95;;;;;;;23.95;42.37;98777.50;4363412;32;35026;-86
2023/07/21 02:16:55;;;;;;;5.60;2.10;;;;;;;23.84;42.82;98778.00;4376310;32;33529;-86
2023/07/21 02:19:22;;;;;;;6.22;2.28;;;;;;;23.92;42.74;98786.44;4376659;32;34253;-86
2023/07/21 02:21:50;;;;;;;4.25;1.83;;;;;;;24.00;42.65;98784.25;4385236;32;34198;-87
2023/07/21 02:24:17;;;;;;;7.10;2.03;;;;;;;24.00;42.92;98783.41;4391355;32;34236;-86
2023/07/21 02:26:47;;;;;;;4.55;1.70;;;;;;;24.02;42.57;98778.91;4391452;32;34140;-86
2023/07/21 02:29:14;;;;;;;4.90;1.35;;;;;;;23.95;42.60;98780.13;4391589;32;34525;-86
2023/07/21 02:31:42;;;;;;;4.10;1.62;;;;;;;23.96;42.66;98779.19;4391176;32;34146;-86
2023/07/21 02:34:10;;;;;;;5.20;2.03;;;;;;;24.16;42.29;98784.38;4377932;32;32857;-86
2023/07/21 02:36:37;;;;;;;4.07;1.60;;;;;;;24.04;42.48;98783.19;4391179;32;33584;-86
2023/07/21 02:39:05;;;;;;;4.20;1.70;;;;;;;23.98;42.11;98790.56;4377656;32;33195;-86
2023/07/21 02:41:33;;;;;;;3.58;1.52;;;;;;;23.88;42.29;98786.66;4391446;32;33946;-86
2023/07/21 02:44:00;;;;;;;4.50;1.80;;;;;;;23.78;42.01;98789.72;4391464;32;34509;-87
2023/07/21 02:46:28;;;;;;;5.28;1.80;;;;;;;23.59;41.33;98799.41;4390919;32;33466;-86
2023/07/21 02:48:56;;;;;;;4.37;1.95;;;;;;;23.58;41.70;98797.72;4391036;32;34599;-86
2023/07/21 02:51:23;;;;;;;3.75;1.62;;;;;;;23.66;42.09;98803.53;4391540;32;34276;-85
2023/07/21 02:53:52;;;;;;;3.95;1.70;;;;;;;23.71;41.95;98806.81;4391330;32;34070;-86
2023/07/21 02:56:20;;;;;;;3.75;1.52;;;;;;;23.63;41.73;98803.63;4390923;32;33431;-87
2023/07/21 02:58:49;;;;;;;3.83;1.80;;;;;;;23.68;41.43;98796.41;4391441;32;33748;-87
2023/07/21 03:01:17;;;;;;;6.60;2.05;;;;;;;23.78;41.29;98810.03;4391190;32;33980;-86
2023/07/21 03:03:45;;;;;;;4.35;1.70;;;;;;;23.79;41.55;98814.44;4377944;32;34984;-86
2023/07/21 03:06:13;;;;;;;5.75;1.60;;;;;;;23.83;41.64;98815.12;4390502;32;33346;-86
2023/07/21 03:08:41;;;;;;;3.53;1.30;;;;;;;23.79;41.67;98819.72;4391259;32;34670;-85
2023/07/21 03:11:12;;;;;;;5.32;2.37;;;;;;;23.76;41.93;98814.56;4376437;32;34051;-85
2023/07/21 03:13:44;;;;;;;6.45;2.37;;;;;;;23.76;41.94;98814.56;4376774;32;33936;-85
2023/07/21 03:16:14;;;;;;;6.57;1.97;;;;;;;23.75;42.51;98813.72;4378109;32;33488;-86
2023/07/21 03:18:43;;;;;;;5.20;2.40;;;;;;;23.73;42.95;98828.78;4374251;32;34418;-86
2023/07/21 03:21:12;;;;;;;5.03;1.87;;;;;;;23.80;43.22;98821.44;4371254;32;33599;-86
2023/07/21 03:23:39;;;;;;;5.75;2.45;;;;;;;23.85;43.01;98818.56;4377105;32;34259;-86
2023/07/21 03:26:07;;;;;;;7.25;2.37;;;;;;;23.87;41.92;98808.78;4377875;32;34774;-86
2023/07/21 03:28:36;;;;;;;7.22;2.80;;;;;;;23.48;42.01;98809.63;4389938;32;34582;-86
2023/07/21 03:31:03;;;;;;;4.12;1.87;;;;;;;23.17;42.58;98816.31;4389721;32;34118;-85
2023/07/21 03:33:32;;;;;;;4.12;2.25;;;;;;;23.30;42.07;98806.91;4390915;32;34451;-86
2023/07/21 03:36:02;;;;;;;5.07;2.47;;;;;;;23.18;42.30;98801.28;4385009;32;34607;-86
2023/07/21 03:38:33;;;;;;;5.55;2.35;;;;;;;23.29;41.34;98794.59;4372120;32;33889;-85
2023/07/21 03:41:05;;;;;;;4.28;1.90;;;;;;;23.41;41.16;98787.91;4376597;32;35165;-85
2023/07/21 03:43:34;;;;;;;6.62;1.87;;;;;;;23.28;41.89;98787.59;4364157;32;33469;-85
2023/07/21 03:46:03;;;;;;;7.18;3.15;;;;;;;23.41;41.49;98793.19;4388001;32;33400;-87
2023/07/21 03:48:32;;;;;;;4.50;1.87;;;;;;;23.67;40.94;98794.66;4375644;32;32193;-85
2023/07/21 03:51:03;;;;;;;4.43;2.08;;;;;;;23.65;41.14;98795.66;4376891;32;34252;-84
2023/07/21 03:53:35;;;;;;;7.40;2.03;;;;;;;23.60;41.45;98795.88;4390655;32;34056;-85
2023/07/21 03:56:08;;;;;;;5.50;2.20;;;;;;;23.86;41.20;98788.50;4390106;32;33292;-85
2023/07/21 03:58:35;;;;;;;6.12;2.03;;;;;;;24.00;41.00;98786.06;4376543;32;34020;-83
2023/07/21 04:01:04;;;;;;;7.62;2.05;;;;;;;23.91;40.94;98795.31;4376711;32;34262;-84
2023/07/21 04:03:33;;;;;;;5.78;2.25;;;;;;;24.22;40.02;98805.28;4390687;32;34475;-85
2023/07/21 04:06:08;;;;;;;5.65;2.05;;;;;;;24.38;39.60;98808.03;4390866;32;34374;-85
2023/07/21 04:08:36;;;;;;;6.10;1.98;;;;;;;24.32;39.53;98810.13;4377221;32;34497;-86
2023/07/21 04:11:03;;;;;;;5.43;1.92;;;;;;;24.09;40.17;98804.13;4390493;32;35014;-85
2023/07/21 04:13:32;;;;;;;9.77;2.25;;;;;;;23.97;40.50;98797.66;4390370;32;34022;-85
2023/07/21 04:16:00;;;;;;;4.25;1.85;;;;;;;23.72;40.99;98792.66;4388719;32;33741;-85
2023/07/21 04:18:28;;;;;;;5.18;2.08;;;;;;;23.29;42.25;98799.88;4389054;32;33641;-84
2023/07/21 04:20:55;;;;;;;7.30;2.20;;;;;;;23.40;42.27;98790.59;4379392;32;34566;-84
2023/07/21 04:23:23;;;;;;;6.50;2.20;;;;;;;23.27;43.16;98788.53;4374527;32;34151;-84
2023/07/21 04:25:51;;;;;;;7.62;2.40;;;;;;;23.04;43.84;98791.34;4373408;32;33235;-83
2023/07/21 04:28:19;;;;;;;8.80;2.58;;;;;;;22.74;44.11;98804.91;4374976;32;34748;-83
2023/07/21 04:30:47;;;;;;;5.87;2.35;;;;;;;22.91;44.22;98814.78;4373016;32;34657;-84
2023/07/21 04:33:15;;;;;;;9.90;2.97;;;;;;;23.15;43.35;98823.47;4375378;32;34245;-83
2023/07/21 04:35:48;;;;;;;4.75;2.40;;;;;;;23.11;43.34;98823.62;4375217;32;33685;-84
2023/07/21 04:38:17;;;;;;;6.15;2.60;;;;;;;22.88;43.96;98819.31;4375373;32;33999;-84
2023/07/21 04:40:45;;;;;;;5.78;2.58;;;;;;;22.93;44.42;98814.75;4361784;32;33437;-84
2023/07/21 04:43:13;;;;;;;10.13;2.70;;;;;;;23.16;44.07;98814.59;4375506;32;33695;-85
2023/07/21 04:45:42;;;;;;;6.65;2.33;;;;;;;22.75;45.01;98811.06;4375529;32;33810;-84
2023/07/21 04:48:10;;;;;;;5.30;2.53;;;;;;;22.86;45.09;98810.59;4374109;32;33989;-84
2023/07/21 04:50:42;;;;;;;4.93;2.55;;;;;;;23.11;44.96;98813.06;4375021;32;33980;-85
2023/07/21 04:53:10;;;;;;;5.10;2.65;;;;;;;23.37;45.19;98815.41;4374100;32;33764;-85
2023/07/21 04:55:38;;;;;;;6.60;3.30;;;;;;;23.55;45.38;98822.50;4375421;32;34187;-85
2023/07/21 04:58:08;;;;;;;6.95;2.70;;;;;;;23.51;45.89;98825.38;4375358;32;33763;-84
2023/07/21 05:00:35;;;;;;;8.90;3.62;;;;;;;23.37;46.90;98827.78;4373804;32;33745;-84
2023/07/21 05:03:03;;;;;;;5.85;3.08;;;;;;;23.59;46.79;98825.03;4386038;32;33666;-84
2023/07/21 05:05:34;;;;;;;7.40;3.70;;;;;;;23.64;47.11;98825.66;4375053;32;33657;-84
2023/07/21 05:08:02;;;;;;;6.87;3.20;;;;;;;23.37;48.29;98838.34;4374742;32;34825;-84
2023/07/21 05:10:31;;;;;;;11.98;3.87;;;;;;;23.09;49.69;98831.66;4374968;32;33959;-85
2023/07/21 05:13:00;;;;;;;10.00;3.50;;;;;;;23.67;48.36;98826.41;4373878;32;34094;-85
2023/07/21 05:15:27;;;;;;;7.80;3.47;;;;;;;23.48;49.37;98828.16;4374970;32;34564;-85
2023/07/21 05:17:55;;;;;;;6.72;3.75;;;;;;;23.51;49.16;98831.53;4374537;32;34002;-84
2023/07/21 05:20:24;;;;;;;8.95;3.83;;;;;;;23.39;49.84;98836.50;4374635;32;34152;-84
2023/07/21 05:22:54;;;;;;;9.23;3.60;;;;;;;23.18;50.35;98833.03;4375501;32;34111;-85
2023/07/21 05:25:21;;;;;;;7.00;3.58;;;;;;;23.31;50.10;98831.56;4375418;32;33647;-85
2023/07/21 05:27:49;;;;;;;8.93;3.97;;;;;;;23.18;50.70;98831.22;4374878;32;34821;-84
2023/07/21 05:30:17;;;;;;;9.38;3.55;;;;;;;23.17;51.06;98840.09;4375193;32;33194;-84
2023/07/21 05:32:47;;;;;;;7.30;4.10;;;;;;;23.34;50.58;98838.53;4376733;32;34351;-85
2023/07/21 05:35:15;;;;;;;8.70;3.80;;;;;;;23.78;49.21;98836.50;4376668;32;33316;-85
2023/07/21 05:37:44;;;;;;;8.43;3.90;;;;;;;24.00;48.75;98844.31;4376781;32;34590;-84
2023/07/21 05:40:12;;;;;;;8.90;3.67;;;;;;;24.06;48.95;98851.97;4376818;32;33504;-85
2023/07/21 05:42:39;;;;;;;10.27;4.28;;;;;;;24.19;48.93;98834.56;4375721;32;34122;-84
2023/07/21 05:45:09;;;;;;;11.18;4.12;;;;;;;24.17;48.02;98830.25;4376931;32;34373;-85
2023/07/21 05:47:39;;;;;;;9.88;3.95;;;;;;;24.14;48.30;98822.47;4375386;32;32772;-85
2023/07/21 05:50:08;;;;;;;8.63;3.60;;;;;;;23.76;49.66;98822.50;4376466;32;35082;-84
2023/07/21 05:52:35;;;;;;;10.90;4.15;;;;;;;23.71;49.59;98814.75;4376773;32;34981;-85
2023/07/21 05:55:05;;;;;;;7.87;3.85;;;;;;;23.91;49.72;98802.41;4351315;32;32626;-84
2023/07/21 05:57:34;;;;;;;7.43;3.72;;;;;;;23.84;50.16;98798.31;4362807;32;32738;-85
2023/07/21 06:00:04;;;;;;;9.50;3.78;;;;;;;24.17;49.75;98812.59;4376508;32;34804;-85
2023/07/21 06:02:39;;;;;;;7.93;4.05;;;;;;;24.51;49.04;98818.94;4376399;32;34282;-85
2023/07/21 06:05:08;;;;;;;8.73;3.70;;;;;;;23.99;49.69;98811.69;4375557;32;34252;-85
2023/07/21 06:07:36;;;;;;;9.10;4.03;;;;;;;24.00;50.06;98801.94;4375617;32;34773;-85
2023/07/21 06:10:05;;;;;;;7.15;3.97;;;;;;;23.89;50.50;98809.53;4376575;32;34124;-85
2023/07/21 06:12:32;;;;;;;8.00;3.95;;;;;;;24.07;50.50;98800.72;4376687;32;33940;-85
2023/07/21 06:15:00;;;;;;;7.10;3.90;;;;;;;24.14;50.54;98799.50;4376948;32;34277;-85
2023/07/21 06:17:29;;;;;;;7.93;4.07;;;;;;;24.15;50.64;98803.00;4376529;32;33936;-85
2023/07/21 06:19:57;;;;;;;9.07;4.37;;;;;;;24.42;49.91;98814.94;4376332;32;34206;-84
2023/07/21 06:22:26;;;;;;;8.93;4.22;;;;;;;24.51;49.95;98818.94;4377016;32;33816;-84
2023/07/21 06:24:55;;;;;;;9.20;4.20;;;;;;;24.34;50.05;98827.66;4376740;32;33126;-84
2023/07/21 06:27:23;;;;;;;14.48;4.53;;;;;;;24.48;49.66;98834.97;4376666;32;34749;-84
2023/07/21 06:29:50;;;;;;;9.00;4.03;;;;;;;24.58;49.34;98838.00;4391111;32;34241;-84
2023/07/21 06:32:18;;;;;;;9.63;4.43;;;;;;;24.54;49.45;98844.41;4389693;32;33904;-86
2023/07/21 06:34:47;;;;;;;8.38;4.12;;;;;;;24.36;50.33;98851.41;4391496;32;34305;-86
2023/07/21 06:37:14;;;;;;;10.65;3.92;;;;;;;24.16;50.76;98857.69;4391569;32;34015;-84
2023/07/21 06:39:42;;;;;;;8.93;4.15;;;;;;;24.30;50.88;98862.34;4390195;32;34130;-85
2023/07/21 06:42:10;;;;;;;8.93;3.92;;;;;;;24.18;50.88;98855.84;4390609;32;34031;-84
2023/07/21 06:44:38;;;;;;;9.27;4.65;;;;;;;24.07;51.03;98860.78;4391931;32;34466;-83
2023/07/21 06:47:05;;;;;;;8.95;4.37;;;;;;;24.21;50.52;98855.69;4391433;32;33784;-83
2023/07/21 06:49:34;;;;;;;10.00;4.30;;;;;;;23.73;51.10;98846.47;4391497;32;34005;-83
2023/07/21 06:52:03;;;;;;;7.20;4.18;;;;;;;23.90;51.02;98850.97;4390850;32;35006;-82
2023/07/21 06:54:31;;;;;;;9.32;4.82;;;;;;;23.94;50.69;98840.19;4389679;32;32582;-87
2023/07/21 06:56:59;;;;;;;13.02;4.03;;;;;;;23.82;51.05;98839.88;4376675;32;34599;-84
2023/07/21 06:59:26;;;;;;;7.72;4.15;;;;;;;24.20;50.45;98841.56;4391268;32;33830;-85
2023/07/21 07:01:55;;;;;;;9.18;4.22;;;;;;;23.98;51.30;98841.75;4391326;32;33877;-84
2023/07/21 07:04:23;;;;;;;9.05;3.90;;;;;;;24.17;50.30;98843.50;4391044;32;33062;-85
2023/07/21 07:06:50;;;;;;;7.85;4.37;;;;;;;24.13;49.57;98834.87;4377257;32;34736;-86
2023/07/21 07:09:18;;;;;;;9.88;4.28;;;;;;;24.13;50.05;98844.59;4389977;32;34191;-85
2023/07/21 07:11:47;;;;;;;7.22;3.90;;;;;;;24.42;49.37;98841.41;4391263;32;33912;-85
2023/07/21 07:14:15;;;;;;;9.90;4.00;;;;;;;24.61;48.95;98846.69;4391751;32;33423;-85
2023/07/21 07:16:43;;;;;;;9.95;4.12;;;;;;;24.55;49.04;98840.81;4390620;32;34123;-83
2023/07/21 07:19:11;;;;;;;6.78;4.10;;;;;;;24.13;50.32;98840.16;4377546;32;34245;-85
2023/07/21 07:21:38;;;;;;;9.45;4.15;;;;;;;24.17;49.79;98831.16;4390068;32;34554;-85
2023/07/21 07:24:06;;;;;;;9.73;4.20;;;;;;;24.22;49.90;98829.13;4391256;32;33767;-85
2023/07/21 07:26:34;;;;;;;10.10;4.72;;;;;;;23.71;50.92;98828.00;4377030;32;33933;-85
2023/07/21 07:29:03;;;;;;;9.30;4.47;;;;;;;23.91;50.71;98826.22;4375547;32;35007;-84
2023/07/21 07:31:31;;;;;;;7.65;4.25;;;;;;;23.79;50.94;98815.28;4376769;32;33505;-85
2023/07/21 07:33:59;;;;;;;10.55;4.65;;;;;;;23.89;51.00;98812.19;4391035;32;34442;-87
2023/07/21 07:36:27;;;;;;;11.10;4.15;;;;;;;23.54;51.78;98817.31;4391012;32;33618;-84
2023/07/21 07:38:54;;;;;;;9.45;4.15;;;;;;;23.62;52.07;98819.59;4377374;32;34001;-84
2023/07/21 07:41:22;;;;;;;7.65;4.75;;;;;;;23.50;52.43;98818.38;4389753;32;33866;-84
2023/07/21 07:43:50;;;;;;;11.63;4.70;;;;;;;23.82;51.67;98819.56;4377257;32;34202;-84
2023/07/21 07:46:18;;;;;;;9.52;4.47;;;;;;;24.10;52.21;98812.97;4388968;32;34868;-84
2023/07/21 07:48:47;;;;;;;8.57;3.90;;;;;;;24.54;50.55;98817.91;4377109;32;34664;-84
2023/07/21 07:51:15;;;;;;;12.55;4.55;;;;;;;24.46;50.47;98807.69;4376408;32;33207;-85
2023/07/21 07:53:43;;;;;;;8.82;4.20;;;;;;;24.31;51.21;98811.91;4390603;32;33550;-84
2023/07/21 07:56:15;;;;;;;8.25;4.30;;;;;;;24.46;50.59;98813.84;4376930;32;33685;-85
2023/07/21 07:58:42;;;;;;;8.95;4.68;;;;;;;24.73;50.44;98819.53;4364660;32;34063;-85
2023/07/21 08:01:13;;;;;;;9.98;4.78;;;;;;;24.96;49.17;98820.16;4376942;32;33715;-85
2023/07/21 08:03:43;;;;;;;10.73;4.43;;;;;;;24.88;49.50;98822.34;4390314;32;34583;-86
2023/07/21 08:06:12;;;;;;;6.65;4.00;;;;;;;24.85;49.52;98818.09;4389778;32;33690;-84
2023/07/21 08:08:40;;;;;;;10.48;4.68;;;;;;;25.15;49.83;98818.31;4390192;32;34306;-83
2023/07/21 08:11:08;;;;;;;7.87;4.20;;;;;;;25.67;49.16;98812.87;4390150;32;34705;-82
2023/07/21 08:13:36;;;;;;;7.15;3.97;;;;;;;25.55;48.37;98805.59;4390386;32;33325;-84
2023/07/21 08:16:09;;;;;;;8.88;3.87;;;;;;;25.17;48.77;98805.84;4389448;32;34753;-84
2023/07/21 08:18:37;;;;;;;8.82;3.92;;;;;;;25.30;48.33;98823.75;4372703;32;33701;-83
2023/07/21 08:21:22;;;;;;;9.23;3.95;;;;;;;25.64;48.80;98804.22;4373887;32;35150;-82
2023/07/21 08:23:50;;;;;;;;;;;;;;;25.73;48.56;98807.25;4361996;32;32771;-83
2023/07/21 08:26:18;;;;;;;9.60;3.80;;;;;;;26.37;47.96;98794.81;4375252;32;34971;-83
2023/07/21 08:28:46;;;;;;;7.12;4.30;;;;;;;26.51;47.11;98795.84;4386169;32;34263;-85
2023/07/21 08:31:13;;;;;;;8.55;4.18;;;;;;;26.89;45.96;98793.56;4399017;32;35262;-83
2023/07/21 08:33:41;;;;;;;8.50;3.60;;;;;;;26.82;46.01;98797.53;4391010;32;33397;-83
2023/07/21 08:36:08;;;;;;;9.85;4.47;;;;;;;26.96;45.83;98796.72;4390208;32;33589;-82
2023/07/21 08:38:39;;;;;;;8.18;3.35;;;;;;;27.03;45.15;98790.94;4390441;32;33873;-84
2023/07/21 08:41:08;;;;;;;9.13;3.53;;;;;;;27.04;42.96;98797.97;4389630;32;33690;-82
2023/07/21 08:43:36;;;;;;;8.55;3.83;;;;;;;27.36;42.45;98805.84;4362143;32;33728;-85
2023/07/21 08:46:07;;;;;;;10.07;3.85;;;;;;;27.35;42.12;98805.00;4389050;32;33481;-82
2023/07/21 08:48:35;;;;;;;7.82;3.35;;;;;;;26.91;43.34;98797.00;4389664;32;34683;-82
2023/07/21 08:51:03;;;;;;;7.72;3.90;;;;;;;27.14;41.26;98793.84;4363788;32;33228;-84
2023/07/21 08:53:31;;;;;;;9.90;3.62;;;;;;;27.44;40.85;98787.59;4388672;32;33622;-81
2023/07/21 08:56:00;;;;;;;8.35;4.00;;;;;;;27.70;41.76;98780.63;4388336;32;34287;-83
2023/07/21 08:58:29;;;;;;;7.57;3.22;;;;;;;27.00;41.75;98780.47;4375847;32;35264;-85
2023/07/21 09:00:56;;;;;;;6.65;3.22;;;;;;;27.13;41.93;98770.84;4376174;32;34212;-81
2023/07/21 09:03:29;;;;;;;9.30;3.15;;;;;;;26.93;41.82;98772.03;4389637;32;33550;-83
2023/07/21 09:05:59;;;;;;;7.62;3.20;;;;;;;27.04;41.14;98779.34;4391419;32;34081;-82
2023/07/21 09:08:29;;;;;;;6.47;3.05;;;;;;;27.15;40.46;98784.03;4391103;32;34065;-82
2023/07/21 09:11:02;;;;;;;7.53;3.75;;;;;;;27.21;40.43;98788.16;4374465;32;34174;-83
2023/07/21 09:13:31;;;;;;;8.27;3.17;;;;;;;27.65;40.58;98783.59;4383853;32;33358;-82
2023/07/21 09:16:00;;;;;;;7.43;2.87;;;;;;;27.15;41.79;98774.25;4383689;32;34895;-84
2023/07/21 09:18:30;;;;;;;8.00;3.87;;;;;;;27.11;40.33;98767.41;4391693;32;35558;-83
2023/07/21 09:20:58;;;;;;;7.60;3.22;;;;;;;26.91;41.20;98763.28;4390532;32;35103;-84
2023/07/21 09:23:29;;;;;;;6.72;3.20;;;;;;;26.67;42.02;98768.28;4391390;32;33545;-84
2023/07/21 09:25:59;;;;;;;7.03;3.15;;;;;;;27.05;42.63;98778.41;4391328;32;34837;-83
2023/07/21 09:28:42;;;;;;;6.95;2.87;;;;;;;27.40;41.06;98780.75;4378196;32;34221;-83
2023/07/21 09:31:13;;;;;;;6.43;2.78;;;;;;;27.76;40.54;98771.41;4377981;32;34076;-83
2023/07/21 09:33:43;;;;;;;6.68;3.28;;;;;;;27.68;40.40;98779.00;4377706;32;33808;-83
2023/07/21 09:36:15;;;;;;;5.18;2.37;;;;;;;28.18;39.79;98793.56;4378007;32;34608;-84
2023/07/21 09:38:44;;;;;;;7.30;2.97;;;;;;;27.80;37.02;98786.22;4391540;32;34917;-83
2023/07/21 09:41:15;;;;;;;10.45;3.00;;;;;;;27.98;38.27;98793.03;4391677;32;33918;-82
2023/07/21 09:43:43;;;;;;;10.25;3.75;;;;;;;27.60;38.39;98790.13;4374679;32;34734;-83
2023/07/21 09:46:11;;;;;;;7.80;3.30;;;;;;;27.82;38.85;98784.34;4388959;32;34778;-83
2023/07/21 09:48:41;;;;;;;6.28;2.67;;;;;;;27.76;39.26;98779.38;4378559;32;34390;-84
2023/07/21 09:51:10;;;;;;;10.80;3.30;;;;;;;28.03;38.22;98772.28;4365577;32;34203;-82
2023/07/21 09:53:39;;;;;;;6.70;2.90;;;;;;;28.04;38.89;98773.16;4390399;32;33252;-82
2023/07/21 09:56:08;;;;;;;5.93;2.90;;;;;;;28.23;38.82;98778.97;4375762;32;34617;-83
2023/07/21 09:58:41;;;;;;;9.25;2.97;;;;;;;28.19;37.10;98787.28;4365373;32;32691;-84
2023/07/21 10:01:12;;;;;;;10.50;2.80;;;;;;;28.17;37.68;98781.19;4377497;32;34598;-87
2023/07/21 10:03:41;;;;;;;8.65;3.15;;;;;;;28.06;37.16;98774.75;4390216;32;33780;-84
2023/07/21 10:06:09;;;;;;;7.12;2.95;;;;;;;28.25;38.10;98770.88;4377161;32;33349;-82
2023/07/21 10:08:38;;;;;;;9.52;3.22;;;;;;;28.31;36.64;98760.66;4377409;32;34602;-84
2023/07/21 10:11:09;;;;;;;8.48;3.17;;;;;;;27.81;38.30;98753.34;4376180;32;34055;-82
2023/07/21 10:13:45;;;;;;;8.85;2.78;;;;;;;27.74;36.21;98754.66;4382398;32;34594;-84
2023/07/21 10:16:14;;;;;;;6.53;2.83;;;;;;;28.02;36.93;98759.91;4376390;32;33605;-82
2023/07/21 10:19:00;;;;;;;8.88;2.62;;;;;;;28.20;36.97;98765.00;4397266;32;33850;-83
2023/07/21 10:21:32;;;;;;;7.43;3.12;;;;;;;28.10;36.00;98752.25;4406130;32;33777;-82
2023/07/21 10:24:06;;;;;;;8.95;2.95;;;;;;;28.35;36.45;98751.50;4406271;32;34512;-83
2023/07/21 10:26:33;;;;;;;5.60;2.20;;;;;;;28.35;36.23;98751.50;4406446;32;34652;-82
2023/07/21 10:29:18;;;;;;;7.65;2.42;;;;;;;28.61;36.00;98749.78;4406486;32;33249;-82
2023/07/21 10:31:56;;;;;;;6.28;2.60;;;;;;;28.80;35.57;98761.88;4375075;32;33726;-84
2023/07/21 10:34:32;;;;;;;10.25;2.80;;;;;;;28.80;34.74;98753.88;4377096;32;34559;-83
2023/07/21 10:37:05;;;;;;;6.55;2.75;;;;;;;28.46;34.44;98748.16;4377077;32;32779;-84
2023/07/21 10:39:34;;;;;;;12.45;3.35;;;;;;;28.83;35.15;98751.00;4365564;32;35045;-85
2023/07/21 10:42:04;;;;;;;9.27;2.90;;;;;;;28.02;37.36;98749.25;4391017;32;34319;-83
2023/07/21 10:44:39;;;;;;;12.48;3.45;;;;;;;28.24;37.83;98746.03;4365379;32;33739;-85
2023/07/21 10:47:11;;;;;;;8.52;2.80;;;;;;;28.49;36.27;98742.63;4391336;32;33645;-82
2023/07/21 10:49:39;;;;;;;6.70;2.97;;;;;;;28.52;35.43;98731.72;4391197;32;33535;-82
2023/07/21 10:52:07;;;;;;;6.93;2.40;;;;;;;28.58;35.26;98723.31;4391220;32;34176;-83
2023/07/21 10:54:35;;;;;;;10.05;2.87;;;;;;;28.84;34.96;98713.53;4377147;32;33395;-86
2023/07/21 10:57:03;;;;;;;10.27;3.15;;;;;;;28.73;34.96;98724.09;4377046;32;34732;-83
2023/07/21 10:59:32;;;;;;;6.53;3.05;;;;;;;28.82;35.41;98723.44;4390710;32;34139;-83
2023/07/21 11:02:02;;;;;;;7.00;2.55;;;;;;;28.77;34.25;98719.41;4377821;32;33958;-83
2023/07/21 11:04:30;;;;;;;6.47;2.70;;;;;;;28.69;34.50;98713.75;4378043;32;33515;-85
2023/07/21 11:06:59;;;;;;;6.15;2.97;;;;;;;28.25;33.49;98706.91;4391205;32;33774;-83
2023/07/21 11:09:28;;;;;;;10.35;2.85;;;;;;;28.07;35.75;98719.63;4391380;32;34172;-83
2023/07/21 11:11:59;;;;;;;7.22;2.78;;;;;;;28.26;36.21;98706.81;4377665;32;34250;-83
2023/07/21 11:14:28;;;;;;;7.57;2.67;;;;;;;28.41;35.78;98707.59;4391450;32;34448;-84
2023/07/21 11:17:00;;;;;;;6.37;2.45;;;;;;;28.24;35.88;98710.53;4377420;32;34701;-83
2023/07/21 11:19:30;;;;;;;7.05;3.33;;;;;;;27.96;35.15;98715.03;4391161;32;34489;-84
2023/07/21 11:21:58;;;;;;;6.22;2.60;;;;;;;28.17;35.97;98715.41;4377057;32;33269;-83
2023/07/21 11:24:31;;;;;;;6.45;2.53;;;;;;;27.95;35.82;98710.63;4377784;32;33505;-83
2023/07/21 11:27:02;;;;;;;6.25;2.80;;;;;;;28.04;35.79;98710.06;4389548;32;34051;-84
2023/07/21 11:29:35;;;;;;;9.55;2.40;;;;;;;28.09;35.28;98720.41;4377610;32;33879;-83
2023/07/21 11:32:18;;;;;;;5.40;2.37;;;;;;;27.91;36.58;98727.78;4377568;32;34514;-83
2023/07/21 11:34:54;;;;;;;6.45;2.87;;;;;;;28.22;36.77;98725.75;4390987;32;33817;-83
2023/07/21 11:37:22;;;;;;;6.85;2.40;;;;;;;28.40;36.93;98740.56;4390933;32;34858;-83
2023/07/21 11:39:56;;;;;;;8.45;3.17;;;;;;;28.25;35.81;98736.22;4364619;32;33422;-83